GAMB

Mopti Airport

Mali
METAR GAMB 210300Z 36010KT 5000 DU NSC 21/M03 Q1014
Observed Flight Rules
Jan-21 @ 03:00 UTC (2 hours ago) Marginal Visual Flight Rules
Wind Visibility Clouds Conditions
360° at 10 knots 5,005 meters
  • Clear skies
  • Dust
Temperatures Readings
Current 21°C / 70°F
Dewpoint -3°C / 27°F
Humidity 20%
Altimeter 29.94" Hg
Pressure 1014 hPa
Elevation 272
METAR GAMB 210300Z 36010KT 5000 DU NSC 21/M03 Q1014
Observed Flight Rules
Jan-21 @ 03:00 UTC
(2 hours ago)
MVFR
Wind Visibility
360° at 10 knots 5,005 meters
Clouds
  • Clear skies
Conditions
  • Dust
Temperature Dewpoint
21°C / 70°F -3°C / 27°F
Humidity Altimeter Pressure
20% 29.94" Hg 1014 hPa